Atlanta, Georgia
Traffic Map
Current Weather Conditions
Atlanta, Georgia
Clear
Clear
13°
Feels Like: 13°
Wind Chill: 13° Ceiling: Unl
Heat Index: 13° Visibility: 10mi
Dew Point: Wind: 10mph
Humidity: 62% Direction: 320° (NW)
Pressure: 30.1in Gusts: 0mph
Raw Report DataKATL 230152Z 32009KT 10SM CLR 13/06 A3010 RMK AO2 SLP194 T01280056
Traffic Incident Summary
Active as of:
Severity:
Category:
InformationThere was an issue retrieving the traffic information for this location. Please try a different location or try again shortly.
Advertisements
Track Severe Weather on mobile